x

Bay Of Campeche - 214 Nm Ne Of Veracruz, Mx (42055) Wave Buoy

2:50am - Thu 2nd Oct 2014 All times are UTC.

  • Sig Wave height 2.6ft
  • Swell Direction
  • Peak Period 5s
  • Average Period 4s
  • Wind
    16mph, 18mph gusts
  • Sea Temp 86°f
  • Air Temp 85°f
  • Sea Pressure 1011.2mb

More Historic Weather Station data

Upgrade to MSW Pro to gain access to the past 30 days of data for over 8000 Wavebouys and Weather Stations around the globe.

Join Pro

Comparision Forecast

View Surf forecast
   
Thu 10/02 2:50am 2.5ft 5s 4s 16 18 mph 1011.2mb 86f 85f
1:50am 2.5ft 5s 4s 16 18 mph 1010.2mb 86f 85f
12:50am 2.5ft 5s 4s 16 18 mph 1009.8mb 86f 85f
Wed 10/01 11:50pm 2.5ft 5s 4s 13 16 mph 1009.2mb 86f 85f
10:50pm 2.5ft 5s 4s 13 16 mph 1009mb 86f 85f
9:50pm 2.5ft 5s 4s 13 16 mph 1008.9mb 86f 85f
8:50pm 2.5ft 5s 4s 13 16 mph 1009.1mb 86f 85f
7:50pm 3ft 5s 4s 13 16 mph 1009.4mb 86f 85f
6:50pm 2.5ft 5s 4s 13 18 mph 1009.9mb 86f 85f
5:50pm 3ft 5s 4s 16 18 mph 1010.5mb 86f 85f
4:50pm 2.5ft 4s 4s 18 20 mph 1010.8mb 86f 85f
3:50pm 2.5ft 4s 4s 18 20 mph 1011.1mb 86f 85f
2:50pm 2ft 4s 4s 18 20 mph 1010.9mb 86f 85f
1:50pm 2ft 3s 3s 16 20 mph 1010.3mb 86f 85f
12:50pm 2ft 3s 3s 16 18 mph 1009.9mb 85f 84f
11:50am 1.6ft 3s 3s 13 16 mph 1009.5mb 86f 84f
10:50am 1.6ft 3s 4s 13 16 mph 1009.2mb 86f 84f
9:50am 1.6ft 4s 4s 13 16 mph 1009mb 86f 84f
8:50am 1.6ft 4s 4s 11 13 mph 1009.2mb 86f 84f
7:50am 1.6ft 4s 4s 11
mph
1009.8mb 86f 84f
6:50am 1.6ft 4s 4s 11 13 mph 1010.1mb 86f 84f
5:50am 1.6ft 3s 4s 11 13 mph 1010.2mb 86f 84f
4:50am 1.6ft 4s 4s 11 13 mph 1010.3mb 86f 84f
3:50am 1.6ft 6s 4s 11 13 mph 1010.2mb 86f 85f
2:50am 1.6ft 6s 4s 11
mph
1009.8mb 86f 85f
1:50am 1.6ft 4s 4s 9 11 mph 1009mb 86f 85f
12:50am 1.6ft 6s 4s 9 11 mph 1008.5mb 86f 85f
Tue 09/30 11:50pm 1.6ft 6s 4s 9 11 mph 1008.1mb 86f 85f
10:50pm 1.6ft 6s 4s 9
mph
1008mb 86f 85f
9:50pm 2ft 6s 4s 9
mph
1008.3mb 86f 85f
8:50pm 1.6ft 6s 4s 9 11 mph 1008.6mb 86f 85f
7:50pm 2ft 6s 4s 11 13 mph 1009.1mb 86f 85f
6:50pm 2ft 6s 4s 13
mph
1009.8mb 86f 85f
5:50pm 2ft 6s 4s 11 13 mph 1010.5mb 86f 85f
4:50pm 2ft 5s 4s 11 13 mph 1010.9mb 86f 85f
3:50pm 1.6ft 5s 4s 13
mph
1011.2mb 86f 85f
2:50pm 2ft 5s 4s 11 13 mph 1011mb 86f 85f
1:50pm 2ft 6s 4s 11 13 mph 1010.9mb 86f 85f
12:50pm 2ft 7s 5s 11
mph
1010.3mb 86f 84f
11:50am 2ft 5s 5s 11 18 mph 1010.3mb 86f 84f
10:50am 1.6ft 5s 5s 7 9 mph 1010.1mb 86f 84f
9:50am 1.6ft 6s 5s 4 7 mph 1009.7mb 86f 84f
8:50am 2ft 6s 5s 4 7 mph 1009.9mb 86f 84f
7:50am 2ft 6s 5s 7
mph
1010mb 86f 84f
6:50am 2ft 6s 5s 7 9 mph 1010.1mb 86f 85f
5:50am 2ft 6s 5s 7 9 mph 1010.3mb 86f 85f
4:50am 2.5ft 6s 5s 7 9 mph 1010.7mb 87f 85f
3:50am 2.5ft 6s 5s 7
mph
1011.1mb 87f 85f
2:50am 2.5ft 7s 5s 4 7 mph 1010.6mb 87f 85f
1:50am 2.5ft 5s 5s 4 7 mph 1010mb 88f 85f
12:50am 2.5ft 5s 5s 2
mph
1009.7mb 88f 85f
Mon 09/29 11:50pm 2.5ft 6s 5s 2
mph
1009.4mb 87f 85f
10:50pm 2.5ft 6s 5s 2
mph
1009mb 88f 88f
9:50pm 2.5ft 6s 5s 2
mph
1009.1mb 88f 86f
8:50pm 2.5ft 6s 5s 2 4 mph 1009.3mb 88f 85f
7:50pm 2.5ft 6s 5s 2 4 mph 1009.8mb 88f 85f
6:50pm 2.5ft 6s 5s 4 7 mph 1010.1mb 87f 85f
5:50pm 2.5ft 6s 5s 4 7 mph 1011mb 87f 85f
4:50pm 2.5ft 6s 5s 4 7 mph 1011.4mb 86f 85f
3:50pm 2.5ft 5s 5s 7 9 mph 1011.4mb 86f 84f
2:50pm 2.5ft 5s 5s 7
mph
1011.6mb 85f 83f
1:50pm 2.5ft 6s 5s 9
mph
1011.3mb 85f 83f
12:50pm 2.5ft 6s 5s 4 7 mph 1010.9mb 85f 83f
11:50am 2.5ft 6s 5s 2 4 mph 1010.4mb 85f 83f
10:50am 2.5ft 5s 5s 2
mph
1009.8mb 86f 83f
9:50am 2.5ft 5s 5s 4
mph
1009.5mb 86f 83f
8:50am 2.5ft 6s 5s 7
mph
1010mb 86f 83f
7:50am 2.5ft 6s 5s 4 7 mph 1010.6mb 86f 84f
6:50am 2.5ft 6s 5s 7 9 mph 1010.7mb 86f 83f
5:50am 2.5ft 5s 5s 7
mph
1010.8mb 86f 84f
4:50am 2.5ft 5s 5s 7 9 mph 1011.3mb 86f 84f
3:50am 2.5ft 5s 5s 4 7 mph 1011.3mb 86f 83f
2:50am 2.5ft 6s 5s 2 4 mph 1011.2mb 86f 83f
1:50am 3ft 5s 5s 7
mph
1011.1mb 86f 83f
12:50am 3ft 6s 5s 11 13 mph 1010.5mb 86f 82f
Sun 09/28 11:50pm 2.5ft 5s 5s 2 4 mph 1010mb 86f 84f
10:50pm 2.5ft 5s 5s 4 7 mph 1009.7mb 87f 84f
9:50pm 2.5ft 6s 5s 7
mph
1009.7mb 87f 84f
8:50pm 2.5ft 6s 5s 2 4 mph 1009.7mb 87f 83f
7:50pm 2.5ft 6s 5s 4 7 mph 1009.7mb 86f 83f
6:50pm 2.5ft 5s 4s 9 11 mph 1010.8mb 86f 85f
5:50pm 2.5ft 6s 4s 11 13 mph 1011.8mb 86f 84f
4:50pm 2.5ft 5s 5s 13 16 mph 1012.1mb 86f 84f
3:50pm 2.5ft 6s 5s 11 13 mph 1012.1mb 86f 84f
2:50pm 2.5ft 6s 4s 11
mph
1012mb 85f 84f
1:50pm 2.5ft 5s 4s 13
mph
1011.4mb 85f 84f
12:50pm 2.5ft 5s 5s 11 13 mph 1010.6mb 85f 83f
11:50am 3ft 7s 5s 9
mph
1010.5mb 85f 84f
10:50am 2.5ft 7s 5s 9 11 mph 1010mb 85f 84f
9:50am 3ft 7s 5s 9 13 mph 1009.8mb 85f 84f
8:50am 3ft 7s 5s 9 11 mph 1010mb 85f 84f
7:50am 3ft 6s 5s 13 16 mph 1010.3mb 85f 84f
6:50am 2.5ft 7s 5s 11 16 mph 1010.9mb 85f 84f
5:50am 2.5ft 6s 5s 11
mph
1011.2mb 85f 84f
4:50am 3ft 6s 5s 11 13 mph 1011.4mb 85f 84f